createdAt,value
2022-08-24T00:00:35.070Z,2.28
2022-08-24T00:03:02.586Z,1.95
2022-08-24T00:05:29.906Z,2.58
2022-08-24T00:07:56.918Z,2.55
2022-08-24T00:10:24.425Z,2.30
2022-08-24T00:12:51.222Z,2.50
2022-08-24T00:15:18.579Z,2.15
2022-08-24T00:17:45.501Z,2.33
2022-08-24T00:20:13.297Z,2.30
2022-08-24T00:22:41.147Z,2.45
2022-08-24T00:25:10.822Z,2.67
2022-08-24T00:27:39.051Z,2.47
2022-08-24T00:30:10.266Z,2.33
2022-08-24T00:32:37.826Z,2.10
2022-08-24T00:35:07.335Z,3.10
2022-08-24T00:37:35.036Z,3.60
2022-08-24T00:40:04.294Z,3.38
2022-08-24T00:42:31.128Z,3.33
2022-08-24T00:44:58.411Z,3.17
2022-08-24T00:47:33.118Z,3.45
2022-08-24T00:50:04.889Z,2.90
2022-08-24T00:52:43.816Z,2.67
2022-08-24T00:55:20.058Z,2.28
2022-08-24T00:57:49.557Z,2.78
2022-08-24T01:00:24.045Z,2.70
2022-08-24T01:02:55.547Z,2.75
2022-08-24T01:05:22.463Z,2.55
2022-08-24T01:07:49.422Z,2.67
2022-08-24T01:10:21.347Z,2.85
2022-08-24T01:13:00.087Z,2.60
2022-08-24T01:15:33.756Z,3.00
2022-08-24T01:18:20.193Z,2.50
2022-08-24T01:23:36.587Z,2.13
2022-08-24T01:26:05.788Z,2.58
2022-08-24T01:28:33.598Z,2.30
2022-08-24T01:31:04.509Z,2.72
2022-08-24T01:33:32.912Z,2.42
2022-08-24T01:36:09.664Z,3.25
2022-08-24T01:38:36.514Z,2.78
2022-08-24T01:41:04.496Z,2.70
2022-08-24T01:43:31.402Z,2.40
2022-08-24T01:46:04.119Z,3.10
2022-08-24T01:48:31.423Z,2.67
2022-08-24T01:50:58.490Z,2.50
2022-08-24T01:53:25.460Z,2.75
2022-08-24T01:55:52.326Z,2.58
2022-08-24T01:58:19.328Z,3.50
2022-08-24T02:00:46.304Z,2.92
2022-08-24T02:03:13.269Z,2.30
2022-08-24T02:05:41.631Z,3.60
2022-08-24T02:08:08.512Z,2.67
2022-08-24T02:10:35.359Z,2.60
2022-08-24T02:13:03.655Z,2.70
2022-08-24T02:15:40.317Z,3.03
2022-08-24T02:18:14.964Z,3.13
2022-08-24T02:20:43.038Z,2.53
2022-08-24T02:23:09.835Z,3.15
2022-08-24T02:25:36.641Z,3.20
2022-08-24T02:28:04.037Z,2.50
2022-08-24T02:30:31.963Z,3.33
2022-08-24T02:32:59.905Z,2.70
2022-08-24T02:35:28.420Z,2.97
2022-08-24T02:37:57.804Z,3.20
2022-08-24T02:40:25.157Z,3.13
2022-08-24T02:42:52.190Z,2.85
2022-08-24T02:45:19.274Z,3.47
2022-08-24T02:47:46.091Z,3.03
2022-08-24T02:50:15.500Z,3.80
2022-08-24T02:52:43.123Z,3.97
2022-08-24T02:55:13.999Z,4.00
2022-08-24T02:57:41.303Z,3.38
2022-08-24T03:00:12.484Z,3.58
2022-08-24T03:02:40.497Z,2.92
2022-08-24T03:05:09.960Z,3.33
2022-08-24T03:07:37.085Z,3.67
2022-08-24T03:10:06.173Z,3.40
2022-08-24T03:12:34.738Z,3.72
2022-08-24T03:15:05.009Z,3.28
2022-08-24T03:17:33.587Z,3.40
2022-08-24T03:20:01.622Z,3.33
2022-08-24T03:22:28.560Z,3.08
2022-08-24T03:24:55.386Z,3.88
2022-08-24T03:27:22.395Z,3.03
2022-08-24T03:29:49.935Z,2.58
2022-08-24T03:32:17.746Z,3.40
2022-08-24T03:34:44.708Z,3.17
2022-08-24T03:37:12.686Z,2.78
2022-08-24T03:39:40.012Z,3.50
2022-08-24T03:42:06.971Z,3.13
2022-08-24T03:44:33.774Z,3.08
2022-08-24T03:47:00.795Z,3.67
2022-08-24T03:49:27.899Z,3.92
2022-08-24T03:51:54.684Z,4.50
2022-08-24T03:54:21.415Z,3.63
2022-08-24T03:56:48.401Z,3.80
2022-08-24T03:59:19.747Z,3.88
2022-08-24T04:01:46.887Z,3.90
2022-08-24T04:04:13.783Z,3.58
2022-08-24T04:06:44.422Z,3.40
2022-08-24T04:09:11.780Z,4.00
2022-08-24T04:11:41.301Z,3.75
2022-08-24T04:14:08.739Z,4.00
2022-08-24T04:16:51.622Z,4.18
2022-08-24T04:19:25.313Z,4.18
2022-08-24T04:21:52.240Z,4.55
2022-08-24T04:24:20.400Z,3.60
2022-08-24T04:26:47.424Z,4.05
2022-08-24T04:29:16.622Z,3.80
2022-08-24T04:31:44.112Z,3.78
2022-08-24T04:34:12.749Z,3.90
2022-08-24T04:36:44.872Z,4.10
2022-08-24T04:39:11.876Z,4.07
2022-08-24T04:41:38.680Z,3.92
2022-08-24T04:44:05.813Z,3.90
2022-08-24T04:46:32.610Z,4.07
2022-08-24T04:48:59.388Z,3.90
2022-08-24T04:51:26.244Z,4.20
2022-08-24T04:53:53.226Z,4.00
2022-08-24T04:56:23.994Z,4.07
2022-08-24T04:58:52.372Z,4.20
2022-08-24T05:01:23.281Z,4.25
2022-08-24T05:03:54.075Z,4.03
2022-08-24T05:06:23.874Z,4.50
2022-08-24T05:08:51.541Z,3.58
2022-08-24T05:11:19.618Z,4.25
2022-08-24T05:13:46.723Z,4.05
2022-08-24T05:16:18.087Z,3.75
2022-08-24T05:18:46.141Z,4.53
2022-08-24T05:21:19.331Z,4.40
2022-08-24T05:23:50.057Z,4.43
2022-08-24T05:26:25.406Z,4.32
2022-08-24T05:28:57.336Z,4.63
2022-08-24T05:31:27.733Z,4.43
2022-08-24T05:33:55.516Z,4.85
2022-08-24T05:36:31.575Z,4.82
2022-08-24T05:41:28.087Z,5.13
2022-08-24T05:43:55.296Z,4.88
2022-08-24T05:46:22.178Z,4.85
2022-08-24T05:48:52.462Z,4.30
2022-08-24T05:51:21.143Z,4.57
2022-08-24T05:53:48.007Z,4.55
2022-08-24T05:56:17.308Z,4.53
2022-08-24T05:58:44.782Z,4.57
2022-08-24T06:01:18.351Z,4.50
2022-08-24T06:03:45.590Z,4.45
2022-08-24T06:06:13.490Z,4.60
2022-08-24T06:08:42.803Z,4.75
2022-08-24T06:11:10.660Z,5.03
2022-08-24T06:13:37.736Z,4.55
2022-08-24T06:16:26.619Z,5.38
2022-08-24T06:18:54.337Z,5.28
2022-08-24T06:21:25.997Z,5.47
2022-08-24T06:23:56.413Z,5.25
2022-08-24T06:26:42.228Z,4.90
2022-08-24T06:29:09.689Z,5.53
2022-08-24T06:31:41.817Z,6.60
2022-08-24T06:34:10.249Z,5.28
2022-08-24T06:36:37.588Z,5.50
2022-08-24T06:39:08.158Z,5.40
2022-08-24T06:41:38.377Z,4.93
2022-08-24T06:44:06.125Z,5.47
2022-08-24T06:46:33.323Z,4.65
2022-08-24T06:49:00.917Z,5.30
2022-08-24T06:51:28.072Z,6.13
2022-08-24T06:53:58.637Z,4.80
2022-08-24T06:56:25.531Z,4.57
2022-08-24T06:58:52.348Z,4.53
2022-08-24T07:01:22.551Z,5.50
2022-08-24T07:03:49.552Z,5.10
2022-08-24T07:06:16.402Z,5.07
2022-08-24T07:08:43.761Z,4.85
2022-08-24T07:11:14.372Z,4.72
2022-08-24T07:13:42.057Z,5.57
2022-08-24T07:16:10.080Z,5.18
2022-08-24T07:18:37.433Z,4.72
2022-08-24T07:21:08.309Z,4.43
2022-08-24T07:23:41.861Z,5.18
2022-08-24T07:26:17.168Z,5.07
2022-08-24T07:28:48.061Z,4.85
2022-08-24T07:31:15.866Z,4.50
2022-08-24T07:33:42.687Z,4.35
2022-08-24T07:36:09.551Z,4.78
2022-08-24T07:38:36.576Z,4.55
2022-08-24T07:41:35.407Z,5.00
2022-08-24T07:43:50.410Z,5.75
2022-08-24T07:46:17.211Z,4.40
2022-08-24T07:48:45.123Z,4.20
2022-08-24T07:51:15.189Z,3.75
2022-08-24T07:53:53.436Z,4.38
2022-08-24T07:56:20.957Z,4.45
2022-08-24T07:58:48.319Z,3.50
2022-08-24T08:01:15.466Z,3.85
2022-08-24T08:03:42.368Z,3.60
2022-08-24T08:06:16.141Z,3.70
2022-08-24T08:08:44.145Z,3.78
2022-08-24T08:11:11.458Z,4.93
2022-08-24T08:16:11.015Z,4.25
2022-08-24T08:18:37.899Z,3.47
2022-08-24T08:21:05.742Z,3.53
2022-08-24T08:23:50.967Z,4.00
2022-08-24T08:26:20.355Z,4.65
2022-08-24T08:28:47.352Z,5.80
2022-08-24T08:31:14.344Z,3.25
2022-08-24T08:33:41.828Z,3.70
2022-08-24T08:36:12.513Z,3.80
2022-08-24T08:38:40.621Z,4.65
2022-08-24T08:41:17.735Z,3.33
2022-08-24T08:43:48.752Z,3.70
2022-08-24T08:46:40.819Z,3.40
2022-08-24T08:49:26.430Z,3.42
2022-08-24T08:52:24.650Z,3.40
2022-08-24T08:55:00.230Z,3.30
2022-08-24T08:57:46.614Z,3.20
2022-08-24T09:00:23.348Z,3.47
2022-08-24T09:03:17.358Z,3.35
2022-08-24T09:06:06.024Z,3.92
2022-08-24T09:09:00.997Z,3.38
2022-08-24T09:11:41.642Z,3.38
2022-08-24T09:14:30.421Z,3.30
2022-08-24T09:17:34.853Z,3.13
2022-08-24T09:20:13.601Z,3.08
2022-08-24T09:22:46.112Z,3.53
2022-08-24T09:25:35.845Z,3.42
2022-08-24T09:28:05.456Z,3.78
2022-08-24T09:30:49.007Z,3.70
2022-08-24T09:33:22.787Z,3.67
2022-08-24T09:36:10.784Z,4.88
2022-08-24T09:38:55.658Z,3.78
2022-08-24T09:41:50.709Z,3.25
2022-08-24T09:44:44.725Z,3.22
2022-08-24T09:47:26.496Z,3.35
2022-08-24T09:50:04.438Z,3.28
2022-08-24T09:52:37.219Z,3.42
2022-08-24T09:55:23.761Z,3.97
2022-08-24T09:58:08.599Z,3.28
2022-08-24T10:00:48.167Z,3.25
2022-08-24T10:03:55.072Z,3.10
2022-08-24T10:06:46.049Z,2.75
2022-08-24T10:09:31.328Z,3.70
2022-08-24T10:12:16.669Z,3.50
2022-08-24T10:14:49.135Z,2.55
2022-08-24T10:17:24.713Z,3.00
2022-08-24T10:20:13.088Z,3.10
2022-08-24T10:22:51.792Z,3.40
2022-08-24T10:25:31.034Z,3.08
2022-08-24T10:28:34.652Z,2.80
2022-08-24T10:31:09.705Z,2.70
2022-08-24T10:34:13.060Z,3.00
2022-08-24T10:37:17.471Z,3.80
2022-08-24T10:39:47.350Z,3.13
2022-08-24T10:42:58.051Z,2.75
2022-08-24T10:45:55.202Z,3.35
2022-08-24T10:49:03.156Z,2.70
2022-08-24T10:51:42.101Z,2.75
2022-08-24T10:54:12.972Z,2.70
2022-08-24T10:56:48.023Z,3.10
2022-08-24T10:59:25.782Z,3.63
2022-08-24T11:02:02.309Z,2.78
2022-08-24T11:04:37.579Z,2.85
2022-08-24T11:07:22.104Z,3.38
2022-08-24T11:10:00.122Z,4.10
2022-08-24T11:12:33.386Z,3.15
2022-08-24T11:15:26.318Z,3.45
2022-08-24T11:18:00.555Z,3.80
2022-08-24T11:20:30.580Z,3.17
2022-08-24T11:23:05.850Z,3.03
2022-08-24T11:25:36.671Z,4.18
2022-08-24T11:28:11.034Z,3.40
2022-08-24T11:30:41.955Z,3.00
2022-08-24T11:33:46.699Z,3.45
2022-08-24T11:36:23.527Z,3.08
2022-08-24T11:39:48.263Z,2.10
2022-08-24T11:42:41.350Z,2.67
2022-08-24T11:45:31.554Z,2.28
2022-08-24T11:48:29.901Z,2.63
2022-08-24T11:51:00.991Z,2.38
2022-08-24T11:54:08.598Z,2.67
2022-08-24T11:57:19.666Z,2.00
2022-08-24T12:00:14.851Z,1.80
2022-08-24T12:02:55.567Z,2.17
2022-08-24T12:05:28.661Z,2.03
2022-08-24T12:08:21.557Z,2.10
2022-08-24T12:10:54.382Z,2.17
2022-08-24T12:13:33.593Z,2.10
2022-08-24T12:16:13.134Z,2.00
2022-08-24T12:18:46.037Z,1.90
2022-08-24T12:21:19.985Z,2.30
2022-08-24T12:23:51.236Z,2.10
2022-08-24T12:26:30.251Z,4.10
2022-08-24T12:29:05.753Z,3.10
2022-08-24T12:31:41.333Z,2.25
2022-08-24T12:34:13.198Z,2.63
2022-08-24T12:36:44.880Z,3.05
2022-08-24T12:39:19.769Z,6.20
2022-08-24T12:41:51.805Z,3.25
2022-08-24T12:44:19.700Z,2.72
2022-08-24T12:46:53.314Z,2.70
2022-08-24T12:49:53.763Z,2.03
2022-08-24T12:52:46.122Z,2.05
2022-08-24T12:55:21.781Z,2.10
2022-08-24T12:58:34.819Z,2.05
2022-08-24T13:01:06.861Z,2.10
2022-08-24T13:03:37.760Z,2.25
2022-08-24T13:06:18.423Z,2.33
2022-08-24T13:08:49.261Z,1.88
2022-08-24T13:11:30.186Z,2.45
2022-08-24T13:14:12.626Z,2.20
2022-08-24T13:16:57.827Z,2.10
2022-08-24T13:19:30.976Z,2.05
2022-08-24T13:22:10.110Z,2.00
2022-08-24T13:24:38.527Z,2.10
2022-08-24T13:27:15.377Z,2.33
2022-08-24T13:30:03.096Z,2.15
2022-08-24T13:32:40.645Z,1.90
2022-08-24T13:35:29.568Z,2.15
2022-08-24T13:38:42.712Z,2.47
2022-08-24T13:41:21.501Z,2.55
2022-08-24T13:44:16.885Z,2.08
2022-08-24T13:47:02.523Z,1.95
2022-08-24T13:49:32.272Z,1.95
2022-08-24T13:52:11.021Z,2.33
2022-08-24T13:55:08.543Z,2.20
2022-08-24T13:57:50.966Z,2.38
2022-08-24T14:00:33.223Z,2.22
2022-08-24T14:03:08.856Z,2.17
2022-08-24T14:05:49.255Z,2.60
2022-08-24T14:08:31.946Z,2.85
2022-08-24T14:10:58.683Z,2.70
2022-08-24T14:13:36.369Z,2.72
2022-08-24T14:16:51.129Z,2.88
2022-08-24T14:19:29.604Z,2.63
2022-08-24T14:22:11.673Z,2.60
2022-08-24T14:24:45.772Z,2.35
2022-08-24T14:27:35.040Z,2.30
2022-08-24T14:30:31.399Z,2.40
2022-08-24T14:33:01.031Z,3.08
2022-08-24T14:35:31.104Z,2.42
2022-08-24T14:38:19.816Z,3.50
2022-08-24T14:41:34.148Z,3.00
2022-08-24T14:44:25.181Z,2.53
2022-08-24T14:47:13.862Z,2.80
2022-08-24T14:49:46.789Z,2.35
2022-08-24T14:52:40.768Z,2.55
2022-08-24T14:55:07.628Z,2.67
2022-08-24T14:58:12.749Z,2.55
2022-08-24T15:01:25.014Z,2.63
2022-08-24T15:04:37.294Z,2.10
2022-08-24T15:07:26.783Z,2.05
2022-08-24T15:09:55.678Z,2.25
2022-08-24T15:12:47.716Z,2.17
2022-08-24T15:15:27.225Z,2.17
2022-08-24T15:18:14.402Z,2.10
2022-08-24T15:20:58.931Z,2.15
2022-08-24T15:23:40.617Z,1.92
2022-08-24T15:26:38.069Z,2.20
2022-08-24T15:29:17.954Z,1.90
2022-08-24T15:31:56.329Z,1.67
2022-08-24T15:34:35.513Z,7.50
2022-08-24T15:37:02.512Z,3.38
2022-08-24T15:39:30.064Z,2.58
2022-08-24T15:41:58.087Z,2.25
2022-08-24T15:44:30.513Z,2.00
2022-08-24T15:47:11.565Z,3.17
2022-08-24T15:49:57.431Z,3.08
2022-08-24T15:52:38.906Z,2.72
2022-08-24T15:55:08.403Z,3.35
2022-08-24T15:57:41.576Z,2.97
2022-08-24T16:00:14.679Z,3.70
2022-08-24T16:02:42.432Z,4.55
2022-08-24T16:05:25.373Z,4.35
2022-08-24T16:08:09.507Z,4.28
2022-08-24T16:10:52.860Z,4.50
2022-08-24T16:13:19.703Z,4.28
2022-08-24T16:15:48.356Z,5.90
2022-08-24T16:18:18.419Z,4.60
2022-08-24T16:20:46.277Z,5.60
2022-08-24T16:23:31.384Z,4.80
2022-08-24T16:26:19.073Z,4.40
2022-08-24T16:28:46.550Z,4.50
2022-08-24T16:31:59.277Z,5.25
2022-08-24T16:34:32.572Z,4.53
2022-08-24T16:36:59.863Z,4.57
2022-08-24T16:39:27.266Z,4.38
2022-08-24T16:41:58.682Z,3.78
2022-08-24T16:44:31.021Z,4.45
2022-08-24T16:46:57.766Z,4.07
2022-08-24T16:49:25.341Z,4.07
2022-08-24T16:51:52.401Z,4.18
2022-08-24T16:54:19.658Z,4.25
2022-08-24T16:56:46.649Z,4.47
2022-08-24T16:59:20.115Z,4.63
2022-08-24T17:01:48.563Z,4.88
2022-08-24T17:04:15.432Z,5.10
2022-08-24T17:06:42.511Z,5.10
2022-08-24T17:09:09.484Z,5.47
2022-08-24T17:11:37.092Z,6.78
2022-08-24T17:14:05.569Z,5.22
2022-08-24T17:16:32.372Z,4.90
2022-08-24T17:18:59.888Z,4.82
2022-08-24T17:21:26.839Z,5.15
2022-08-24T17:23:53.606Z,5.70
2022-08-24T17:26:21.512Z,5.65
2022-08-24T17:28:52.020Z,4.82
2022-08-24T17:31:19.253Z,5.55
2022-08-24T17:33:46.097Z,5.07
2022-08-24T17:36:15.836Z,5.15
2022-08-24T17:38:52.960Z,5.05
2022-08-24T17:41:23.037Z,5.45
2022-08-24T17:43:50.466Z,5.35
2022-08-24T17:46:18.573Z,5.93
2022-08-24T17:48:46.367Z,5.20
2022-08-24T17:51:14.124Z,5.40
2022-08-24T17:53:41.517Z,5.20
2022-08-24T17:56:09.920Z,6.18
2022-08-24T17:58:56.854Z,5.68
2022-08-24T18:01:24.568Z,5.13
2022-08-24T18:03:51.722Z,5.80
2022-08-24T18:06:20.867Z,6.15
2022-08-24T18:08:48.389Z,5.75
2022-08-24T18:11:15.361Z,5.20
2022-08-24T18:13:42.629Z,7.00
2022-08-24T18:16:16.438Z,7.35
2022-08-24T18:18:43.594Z,6.63
2022-08-24T18:21:10.510Z,6.40
2022-08-24T18:23:40.638Z,5.40
2022-08-24T18:26:11.205Z,6.53
2022-08-24T18:28:38.314Z,7.25
2022-08-24T18:31:10.415Z,8.15
2022-08-24T18:33:37.221Z,8.20
2022-08-24T18:36:04.595Z,7.30
2022-08-24T18:38:31.518Z,7.20
2022-08-24T18:41:00.936Z,11.75
2022-08-24T18:43:28.240Z,6.97
2022-08-24T18:45:55.545Z,6.22
2022-08-24T18:48:22.883Z,7.15
2022-08-24T18:50:51.026Z,6.47
2022-08-24T18:53:18.215Z,6.13
2022-08-24T18:55:47.167Z,6.47
2022-08-24T18:58:14.359Z,7.32
2022-08-24T19:00:42.365Z,7.28
2022-08-24T19:03:11.628Z,9.07
2022-08-24T19:05:39.470Z,6.97
2022-08-24T19:08:07.365Z,10.75
2022-08-24T19:10:37.116Z,7.15
2022-08-24T19:13:10.399Z,6.10
2022-08-24T19:15:40.263Z,6.25
2022-08-24T19:18:10.903Z,7.30
2022-08-24T19:20:45.829Z,7.13
2022-08-24T19:23:18.516Z,7.38
2022-08-24T19:25:46.383Z,7.10
2022-08-24T19:28:13.981Z,7.22
2022-08-24T19:30:42.390Z,7.28
2022-08-24T19:33:13.819Z,7.50
2022-08-24T19:35:41.588Z,7.28
2022-08-24T19:38:09.166Z,7.45
2022-08-24T19:40:37.319Z,7.90
2022-08-24T19:43:06.029Z,11.68
2022-08-24T19:45:54.172Z,9.80
2022-08-24T19:48:23.236Z,8.25
2022-08-24T19:50:52.239Z,7.53
2022-08-24T19:53:20.088Z,6.78
2022-08-24T19:55:50.120Z,7.88
2022-08-24T19:58:38.422Z,8.20
2022-08-24T20:01:11.418Z,7.18
2022-08-24T20:03:38.340Z,6.75
2022-08-24T20:06:05.380Z,6.72
2022-08-24T20:08:32.252Z,7.63
2022-08-24T20:11:00.526Z,7.35
2022-08-24T20:13:28.252Z,7.72
2022-08-24T20:15:56.211Z,7.32
2022-08-24T20:18:31.995Z,7.97
2022-08-24T20:20:59.428Z,9.13
2022-08-24T20:23:27.440Z,8.63
2022-08-24T20:25:56.419Z,9.20
2022-08-24T20:28:29.788Z,8.82
2022-08-24T20:30:58.288Z,7.72
2022-08-24T20:33:27.587Z,8.32
2022-08-24T20:35:56.353Z,10.48
2022-08-24T20:38:24.159Z,11.35
2022-08-24T20:40:52.047Z,10.70
2022-08-24T20:43:19.266Z,11.90
2022-08-24T20:45:46.416Z,11.35
2022-08-24T20:48:14.024Z,9.73
2022-08-24T20:50:44.937Z,8.00
2022-08-24T20:53:12.372Z,7.95
2022-08-24T20:55:41.551Z,8.45
2022-08-24T20:58:09.614Z,7.38
2022-08-24T21:00:37.369Z,8.23
2022-08-24T21:03:04.700Z,7.93
2022-08-24T21:05:31.608Z,7.13
2022-08-24T21:07:59.247Z,7.95
2022-08-24T21:10:27.329Z,8.50
2022-08-24T21:12:54.817Z,9.35
2022-08-24T21:15:23.205Z,8.70
2022-08-24T21:17:50.388Z,8.10
2022-08-24T21:20:18.608Z,8.95
2022-08-24T21:22:48.436Z,8.65
2022-08-24T21:25:16.781Z,8.52
2022-08-24T21:27:46.308Z,8.35
2022-08-24T21:30:17.004Z,8.48
2022-08-24T21:33:02.321Z,7.50
2022-08-24T21:35:29.739Z,8.48
2022-08-24T21:37:57.317Z,7.70
2022-08-24T21:40:26.157Z,8.55
2022-08-24T21:42:53.097Z,8.57
2022-08-24T21:45:20.451Z,8.57
2022-08-24T21:47:47.529Z,8.82
2022-08-24T21:50:15.784Z,7.95
2022-08-24T21:52:43.009Z,9.38
2022-08-24T21:55:16.454Z,9.88
2022-08-24T21:57:43.668Z,9.63
2022-08-24T22:00:15.592Z,9.20
2022-08-24T22:02:42.424Z,8.57
2022-08-24T22:05:10.212Z,9.27
2022-08-24T22:07:37.289Z,8.52
2022-08-24T22:10:07.314Z,8.73
2022-08-24T22:12:42.475Z,8.80
2022-08-24T22:15:12.740Z,8.03
2022-08-24T22:17:39.629Z,9.07
2022-08-24T22:20:07.975Z,9.93
2022-08-24T22:22:43.659Z,8.80
2022-08-24T22:25:12.913Z,9.02
2022-08-24T22:27:41.277Z,8.65
2022-08-24T22:30:09.008Z,7.80
2022-08-24T22:32:35.860Z,8.52
2022-08-24T22:35:02.960Z,7.88
2022-08-24T22:37:29.963Z,8.27
2022-08-24T22:39:56.958Z,8.90
2022-08-24T22:42:23.748Z,8.25
2022-08-24T22:44:50.515Z,9.25
2022-08-24T22:47:18.980Z,9.02
2022-08-24T22:49:46.705Z,8.20
2022-08-24T22:52:14.591Z,8.15
2022-08-24T22:54:41.485Z,9.15
2022-08-24T22:57:08.896Z,8.07
2022-08-24T22:59:40.789Z,8.35
2022-08-24T23:02:13.596Z,8.57
2022-08-24T23:04:43.530Z,8.80
2022-08-24T23:07:11.600Z,8.13
2022-08-24T23:09:44.910Z,8.45
2022-08-24T23:12:14.850Z,8.10
2022-08-24T23:14:42.337Z,9.10
2022-08-24T23:17:09.390Z,8.90
2022-08-24T23:19:54.599Z,8.98
2022-08-24T23:22:21.675Z,8.45
2022-08-24T23:24:49.004Z,8.52
2022-08-24T23:27:17.233Z,8.82
2022-08-24T23:29:45.870Z,9.38
2022-08-24T23:32:13.495Z,8.88
2022-08-24T23:34:45.390Z,8.23
2022-08-24T23:37:12.603Z,8.52
2022-08-24T23:39:39.508Z,8.65
2022-08-24T23:42:06.917Z,8.98
2022-08-24T23:44:33.960Z,8.98
2022-08-24T23:47:01.145Z,9.15
2022-08-24T23:49:29.497Z,9.30
2022-08-24T23:51:57.244Z,9.38
2022-08-24T23:54:24.702Z,8.13
2022-08-24T23:56:52.848Z,8.77
2022-08-24T23:59:26.573Z,9.13
